N148AW MDLR-MDJB
Flight info
| Callsign | N148AW |
|---|---|
| Flight time | 0h 26m |
| Altitude | 800 |
| Route | VFR |
| Aircraft | B407/L-SFG/C |
Departure
| Time | 2026-05-04 02:34 |
|---|---|
| Airport | Casa De Campo International Airport (MDLR) |
Arrival
| Time | 2026-05-04 03:00 |
|---|---|
| Airport | La Isabela International Airport (MDJB) |
| Time | Latitude | Longitude | Altitude | Speed | Heading |
|---|---|---|---|---|---|
| 2026-05-04 02:33 | 18.41617 | -68.93335 | 95 ft | 3 kts | 357° |
| 2026-05-04 02:33 | 18.41612 | -68.93587 | 394 ft | 72 kts | 268° |
| 2026-05-04 02:33 | 18.41614 | -68.94137 | 770 ft | 68 kts | 278° |
| 2026-05-04 02:34 | 18.41685 | -68.94691 | 826 ft | 82 kts | 278° |
| 2026-05-04 02:34 | 18.41643 | -68.95347 | 688 ft | 97 kts | 258° |
| 2026-05-04 02:34 | 18.41481 | -68.96092 | 395 ft | 110 kts | 251° |
| 2026-05-04 02:34 | 18.41217 | -68.96827 | 505 ft | 104 kts | 247° |
| 2026-05-04 02:35 | 18.40943 | -68.97526 | 598 ft | 102 kts | 246° |
| 2026-05-04 02:35 | 18.40679 | -68.98225 | 599 ft | 106 kts | 251° |
| 2026-05-04 02:35 | 18.40548 | -68.99017 | 623 ft | 113 kts | 263° |
| 2026-05-04 02:35 | 18.40533 | -68.99853 | 649 ft | 121 kts | 272° |
| 2026-05-04 02:36 | 18.40670 | -69.00754 | 643 ft | 128 kts | 284° |
| 2026-05-04 02:36 | 18.41031 | -69.01618 | 651 ft | 131 kts | 296° |
| 2026-05-04 02:36 | 18.41464 | -69.02477 | 649 ft | 134 kts | 296° |
| 2026-05-04 02:36 | 18.41906 | -69.03346 | 648 ft | 135 kts | 296° |
| 2026-05-04 02:37 | 18.42354 | -69.04214 | 644 ft | 134 kts | 297° |
| 2026-05-04 02:37 | 18.42803 | -69.05076 | 644 ft | 134 kts | 297° |
| 2026-05-04 02:37 | 18.43247 | -69.05936 | 646 ft | 134 kts | 297° |
| 2026-05-04 02:37 | 18.43688 | -69.06794 | 643 ft | 133 kts | 297° |
| 2026-05-04 02:38 | 18.44130 | -69.07649 | 641 ft | 133 kts | 296° |
| 2026-05-04 02:38 | 18.44474 | -69.08557 | 644 ft | 133 kts | 284° |
| 2026-05-04 02:38 | 18.44669 | -69.09512 | 638 ft | 133 kts | 278° |
| 2026-05-04 02:38 | 18.44829 | -69.10478 | 644 ft | 135 kts | 278° |
| 2026-05-04 02:39 | 18.44987 | -69.11456 | 643 ft | 136 kts | 277° |
| 2026-05-04 02:39 | 18.45158 | -69.12432 | 637 ft | 135 kts | 278° |
| 2026-05-04 02:39 | 18.45332 | -69.13397 | 633 ft | 133 kts | 279° |
| 2026-05-04 02:39 | 18.45506 | -69.14359 | 633 ft | 134 kts | 279° |
| 2026-05-04 02:40 | 18.45674 | -69.15304 | 635 ft | 134 kts | 279° |
| 2026-05-04 02:40 | 18.45846 | -69.16276 | 635 ft | 136 kts | 279° |
| 2026-05-04 02:40 | 18.46018 | -69.17262 | 631 ft | 137 kts | 278° |
| 2026-05-04 02:40 | 18.46200 | -69.18246 | 641 ft | 137 kts | 279° |
| 2026-05-04 02:41 | 18.46325 | -69.19236 | 626 ft | 134 kts | 271° |
| 2026-05-04 02:41 | 18.46344 | -69.20220 | 643 ft | 136 kts | 267° |
| 2026-05-04 02:41 | 18.46344 | -69.21232 | 646 ft | 140 kts | 267° |
| 2026-05-04 02:41 | 18.46339 | -69.22268 | 636 ft | 141 kts | 266° |
| 2026-05-04 02:42 | 18.46328 | -69.23304 | 630 ft | 141 kts | 266° |
| 2026-05-04 02:42 | 18.46268 | -69.24327 | 638 ft | 140 kts | 260° |
| 2026-05-04 02:42 | 18.46107 | -69.25344 | 635 ft | 141 kts | 254° |
| 2026-05-04 02:42 | 18.45848 | -69.26338 | 631 ft | 140 kts | 249° |
| 2026-05-04 02:43 | 18.45541 | -69.27302 | 623 ft | 138 kts | 248° |
| 2026-05-04 02:43 | 18.45233 | -69.28254 | 622 ft | 137 kts | 248° |
| 2026-05-04 02:43 | 18.44893 | -69.29171 | 623 ft | 135 kts | 243° |
| 2026-05-04 02:43 | 18.44522 | -69.30087 | 626 ft | 137 kts | 243° |
| 2026-05-04 02:44 | 18.44146 | -69.31020 | 623 ft | 140 kts | 244° |
| 2026-05-04 02:44 | 18.43934 | -69.32019 | 624 ft | 140 kts | 260° |
| 2026-05-04 02:44 | 18.43847 | -69.33039 | 630 ft | 141 kts | 263° |
| 2026-05-04 02:44 | 18.43775 | -69.34071 | 622 ft | 141 kts | 263° |
| 2026-05-04 02:45 | 18.43707 | -69.35095 | 625 ft | 139 kts | 263° |
| 2026-05-04 02:45 | 18.43638 | -69.36111 | 620 ft | 139 kts | 263° |
| 2026-05-04 02:45 | 18.43563 | -69.37126 | 628 ft | 140 kts | 263° |
| 2026-05-04 02:45 | 18.43486 | -69.38150 | 622 ft | 140 kts | 262° |
| 2026-05-04 02:46 | 18.43428 | -69.39179 | 627 ft | 142 kts | 263° |
| 2026-05-04 02:46 | 18.43358 | -69.40210 | 624 ft | 141 kts | 262° |
| 2026-05-04 02:46 | 18.43298 | -69.41234 | 620 ft | 139 kts | 263° |
| 2026-05-04 02:46 | 18.43239 | -69.42247 | 613 ft | 138 kts | 263° |
| 2026-05-04 02:47 | 18.43181 | -69.43241 | 631 ft | 136 kts | 263° |
| 2026-05-04 02:47 | 18.43123 | -69.44247 | 618 ft | 138 kts | 262° |
| 2026-05-04 02:47 | 18.43074 | -69.45231 | 623 ft | 136 kts | 264° |
| 2026-05-04 02:47 | 18.43014 | -69.46235 | 623 ft | 137 kts | 263° |
| 2026-05-04 02:48 | 18.42975 | -69.47237 | 624 ft | 138 kts | 268° |
| 2026-05-04 02:48 | 18.43052 | -69.48238 | 618 ft | 136 kts | 274° |
| 2026-05-04 02:48 | 18.43164 | -69.49232 | 625 ft | 138 kts | 274° |
| 2026-05-04 02:48 | 18.43283 | -69.50237 | 630 ft | 139 kts | 274° |
| 2026-05-04 02:49 | 18.43366 | -69.50909 | 628 ft | 141 kts | 274° |
| 2026-05-04 02:49 | 18.43491 | -69.51940 | 629 ft | 142 kts | 274° |
| 2026-05-04 02:49 | 18.43614 | -69.52978 | 624 ft | 142 kts | 273° |
| 2026-05-04 02:49 | 18.43745 | -69.54011 | 613 ft | 141 kts | 274° |
| 2026-05-04 02:50 | 18.43872 | -69.55022 | 611 ft | 138 kts | 274° |
| 2026-05-04 02:50 | 18.43998 | -69.56027 | 624 ft | 139 kts | 274° |
| 2026-05-04 02:50 | 18.44124 | -69.57039 | 617 ft | 140 kts | 274° |
| 2026-05-04 02:50 | 18.44242 | -69.58044 | 610 ft | 137 kts | 274° |
| 2026-05-04 02:51 | 18.44349 | -69.59019 | 623 ft | 136 kts | 274° |
| 2026-05-04 02:51 | 18.44462 | -69.60015 | 612 ft | 137 kts | 274° |
| 2026-05-04 02:51 | 18.44580 | -69.61008 | 618 ft | 137 kts | 274° |
| 2026-05-04 02:51 | 18.44683 | -69.62005 | 614 ft | 137 kts | 271° |
| 2026-05-04 02:52 | 18.44761 | -69.63003 | 624 ft | 137 kts | 271° |
| 2026-05-04 02:52 | 18.44842 | -69.64014 | 623 ft | 140 kts | 271° |
| 2026-05-04 02:52 | 18.44921 | -69.65031 | 615 ft | 138 kts | 271° |
| 2026-05-04 02:52 | 18.45003 | -69.66030 | 619 ft | 135 kts | 271° |
| 2026-05-04 02:53 | 18.45080 | -69.67009 | 618 ft | 134 kts | 271° |
| 2026-05-04 02:53 | 18.45152 | -69.67993 | 606 ft | 134 kts | 271° |
| 2026-05-04 02:53 | 18.45263 | -69.68968 | 628 ft | 135 kts | 275° |
| 2026-05-04 02:53 | 18.45394 | -69.69952 | 609 ft | 136 kts | 275° |
| 2026-05-04 02:54 | 18.45563 | -69.70913 | 629 ft | 128 kts | 304° |
| 2026-05-04 02:54 | 18.45753 | -69.71807 | 600 ft | 123 kts | 289° |
| 2026-05-04 02:54 | 18.45837 | -69.72694 | 624 ft | 122 kts | 287° |
| 2026-05-04 02:54 | 18.45917 | -69.73584 | 618 ft | 122 kts | 288° |
| 2026-05-04 02:55 | 18.46071 | -69.75349 | 617 ft | 122 kts | 288° |
| 2026-05-04 02:55 | 18.46143 | -69.76233 | 614 ft | 120 kts | 287° |
| 2026-05-04 02:55 | 18.46212 | -69.77107 | 625 ft | 120 kts | 288° |
| 2026-05-04 02:56 | 18.46280 | -69.77992 | 615 ft | 122 kts | 287° |
| 2026-05-04 02:56 | 18.46341 | -69.78862 | 617 ft | 117 kts | 287° |
| 2026-05-04 02:56 | 18.46399 | -69.79718 | 626 ft | 119 kts | 287° |
| 2026-05-04 02:56 | 18.46452 | -69.80585 | 636 ft | 123 kts | 269° |
| 2026-05-04 02:57 | 18.46438 | -69.81491 | 654 ft | 128 kts | 272° |
| 2026-05-04 02:57 | 18.46513 | -69.82450 | 640 ft | 136 kts | 273° |
| 2026-05-04 02:57 | 18.46608 | -69.83457 | 638 ft | 139 kts | 273° |
| 2026-05-04 02:57 | 18.46710 | -69.84474 | 634 ft | 140 kts | 273° |
| 2026-05-04 02:58 | 18.46808 | -69.85500 | 637 ft | 142 kts | 273° |
| 2026-05-04 02:58 | 18.46834 | -69.86538 | 635 ft | 142 kts | 262° |
| 2026-05-04 02:58 | 18.46702 | -69.87570 | 629 ft | 142 kts | 257° |
| 2026-05-04 02:58 | 18.46489 | -69.88583 | 633 ft | 141 kts | 253° |
| 2026-05-04 02:59 | 18.46246 | -69.89585 | 633 ft | 141 kts | 251° |
| 2026-05-04 02:59 | 18.45892 | -69.90540 | 636 ft | 139 kts | 242° |
| 2026-05-04 02:59 | 18.45443 | -69.91441 | 633 ft | 138 kts | 237° |
| 2026-05-04 02:59 | 18.45004 | -69.92115 | 471 ft | 74 kts | 285° |
| 2026-05-04 03:00 | 18.45257 | -69.92142 | 260 ft | 33 kts | 30° |
| 2026-05-04 03:00 | 18.45359 | -69.92084 | 69 ft | 5 kts | 28° |
| 2026-05-04 03:00 | 18.45379 | -69.92077 | 44 ft | 2 kts | 32° |
| 2026-05-04 03:00 | 18.45382 | -69.92077 | 38 ft | 0 kts | 31° |
| 2026-05-04 03:02 | 18.45288 | -69.92063 | 162 ft | 48 kts | 166° |
| 2026-05-04 03:02 | 18.44818 | -69.92323 | 410 ft | 89 kts | 222° |
| 2026-05-04 03:02 | 18.44627 | -69.92940 | 569 ft | 105 kts | 308° |
| 2026-05-04 03:02 | 18.45196 | -69.93450 | 718 ft | 108 kts | 327° |
| 2026-05-04 03:03 | 18.45891 | -69.93877 | 673 ft | 119 kts | 330° |
| 2026-05-04 03:03 | 18.46668 | -69.94266 | 659 ft | 121 kts | 335° |
| 2026-05-04 03:03 | 18.47456 | -69.94609 | 664 ft | 125 kts | 338° |
| 2026-05-04 03:03 | 18.48261 | -69.94879 | 659 ft | 124 kts | 342° |
| 2026-05-04 03:04 | 18.49070 | -69.95159 | 714 ft | 113 kts | 342° |
| 2026-05-04 03:04 | 18.49847 | -69.95379 | 732 ft | 117 kts | 344° |
| 2026-05-04 03:04 | 18.50633 | -69.95589 | 760 ft | 120 kts | 342° |
| 2026-05-04 03:04 | 18.51452 | -69.95840 | 695 ft | 126 kts | 342° |
| 2026-05-04 03:05 | 18.52272 | -69.96107 | 674 ft | 127 kts | 334° |
| 2026-05-04 03:05 | 18.53083 | -69.96443 | 715 ft | 123 kts | 338° |
| 2026-05-04 03:05 | 18.53896 | -69.96705 | 756 ft | 117 kts | 342° |
| 2026-05-04 03:05 | 18.54690 | -69.96966 | 787 ft | 118 kts | 334° |
| 2026-05-04 03:06 | 18.55455 | -69.97327 | 794 ft | 118 kts | 336° |
| 2026-05-04 03:06 | 18.56227 | -69.97706 | 666 ft | 128 kts | 334° |
| 2026-05-04 03:06 | 18.57009 | -69.98160 | 587 ft | 123 kts | 325° |
| 2026-05-04 03:06 | 18.57661 | -69.98439 | 236 ft | 68 kts | 354° |
| 2026-05-04 03:07 | 18.57891 | -69.98385 | 106 ft | 12 kts | 70° |
| 2026-05-04 03:07 | 18.57884 | -69.98289 | 110 ft | 10 kts | 92° |
| 2026-05-04 03:07 | 18.57883 | -69.98262 | 101 ft | 0 kts | 95° |
| 2026-05-04 03:07 | 18.57883 | -69.98261 | 98 ft | 0 kts | 95° |